createdAt,value
2023-01-19T00:01:38.840Z,13.07
2023-01-19T00:04:06.049Z,12.50
2023-01-19T00:06:33.160Z,14.23
2023-01-19T00:08:59.791Z,12.47
2023-01-19T00:11:26.444Z,12.60
2023-01-19T00:13:53.738Z,13.50
2023-01-19T00:16:23.067Z,12.50
2023-01-19T00:18:51.167Z,10.60
2023-01-19T00:21:18.747Z,13.20
2023-01-19T00:23:48.434Z,13.37
2023-01-19T00:26:16.304Z,13.17
2023-01-19T00:28:43.803Z,11.87
2023-01-19T00:31:11.637Z,12.97
2023-01-19T00:33:38.319Z,11.47
2023-01-19T00:36:05.854Z,13.13
2023-01-19T00:38:32.509Z,9.17
2023-01-19T00:40:59.142Z,13.17
2023-01-19T00:43:25.786Z,12.23
2023-01-19T00:45:52.788Z,10.90
2023-01-19T00:48:19.458Z,11.80
2023-01-19T00:50:47.734Z,11.90
2023-01-19T00:53:14.350Z,14.10
2023-01-19T00:55:41.127Z,11.97
2023-01-19T00:58:07.870Z,11.50
2023-01-19T01:00:34.847Z,11.43
2023-01-19T01:03:02.053Z,14.23
2023-01-19T01:05:28.901Z,13.13
2023-01-19T01:07:55.562Z,10.77
2023-01-19T01:10:23.779Z,11.00
2023-01-19T01:13:19.372Z,12.57
2023-01-19T01:15:37.097Z,11.90
2023-01-19T01:18:03.761Z,12.10
2023-01-19T01:20:31.202Z,12.97
2023-01-19T01:22:58.228Z,13.97
2023-01-19T01:25:26.233Z,12.03
2023-01-19T01:27:53.269Z,11.20
2023-01-19T01:30:20.313Z,11.50
2023-01-19T01:32:47.382Z,9.77
2023-01-19T01:35:14.152Z,10.77
2023-01-19T01:37:40.853Z,11.93
2023-01-19T01:40:07.979Z,11.27
2023-01-19T01:42:35.088Z,11.63
2023-01-19T01:45:06.148Z,13.07
2023-01-19T01:47:35.714Z,13.27
2023-01-19T01:50:10.026Z,11.33
2023-01-19T01:52:39.158Z,9.27
2023-01-19T01:55:09.587Z,11.60
2023-01-19T01:57:38.835Z,11.30
2023-01-19T02:00:06.375Z,12.73
2023-01-19T02:02:55.253Z,11.10
2023-01-19T02:05:28.199Z,11.57
2023-01-19T02:08:16.115Z,11.03
2023-01-19T02:11:02.106Z,12.50
2023-01-19T02:13:29.772Z,9.73
2023-01-19T02:15:59.298Z,11.07
2023-01-19T02:18:30.150Z,11.80
2023-01-19T02:21:12.096Z,10.87
2023-01-19T02:23:40.746Z,12.47
2023-01-19T02:26:09.553Z,10.73
2023-01-19T02:28:40.076Z,12.03
2023-01-19T02:31:06.833Z,10.97
2023-01-19T02:33:33.715Z,10.77
2023-01-19T02:36:00.813Z,11.73
2023-01-19T02:38:27.830Z,13.13
2023-01-19T02:40:55.778Z,8.67
2023-01-19T02:43:23.857Z,13.83
2023-01-19T02:45:50.725Z,11.60
2023-01-19T02:48:19.649Z,13.27
2023-01-19T02:50:49.276Z,12.47
2023-01-19T02:53:19.207Z,14.63
2023-01-19T02:56:05.932Z,11.13
2023-01-19T02:58:37.315Z,10.63
2023-01-19T03:01:15.639Z,10.20
2023-01-19T03:03:49.312Z,11.57
2023-01-19T03:06:36.086Z,11.47
2023-01-19T03:09:08.641Z,11.53
2023-01-19T03:11:38.345Z,11.13
2023-01-19T03:14:09.278Z,12.43
2023-01-19T03:16:35.984Z,14.33
2023-01-19T03:19:17.853Z,11.60
2023-01-19T03:21:49.542Z,14.53
2023-01-19T03:24:17.587Z,12.30
2023-01-19T03:26:47.367Z,11.83
2023-01-19T03:29:14.968Z,15.07
2023-01-19T03:31:43.411Z,15.47
2023-01-19T03:34:11.687Z,14.57
2023-01-19T03:36:43.555Z,15.67
2023-01-19T03:39:11.088Z,13.43
2023-01-19T03:41:38.947Z,12.37
2023-01-19T03:44:06.365Z,12.73
2023-01-19T03:46:33.232Z,12.47
2023-01-19T03:49:00.101Z,12.10
2023-01-19T03:51:26.860Z,11.47
2023-01-19T03:53:53.483Z,14.40
2023-01-19T03:56:22.070Z,14.50
2023-01-19T03:58:48.900Z,13.97
2023-01-19T04:01:16.013Z,14.23
2023-01-19T04:03:43.130Z,10.13
2023-01-19T04:06:10.419Z,13.53
2023-01-19T04:08:37.165Z,14.57
2023-01-19T04:11:03.947Z,9.97
2023-01-19T04:13:31.692Z,21.37
2023-01-19T04:16:02.242Z,13.73
2023-01-19T04:18:29.815Z,13.67
2023-01-19T04:20:59.742Z,15.40
2023-01-19T04:23:26.507Z,19.00
2023-01-19T04:26:03.957Z,14.07
2023-01-19T04:28:30.874Z,11.23
2023-01-19T04:30:57.583Z,13.00
2023-01-19T04:33:24.949Z,13.27
2023-01-19T04:35:54.435Z,12.90
2023-01-19T04:38:21.188Z,11.73
2023-01-19T04:40:48.873Z,15.03
2023-01-19T04:43:15.508Z,12.97
2023-01-19T04:45:44.806Z,14.73
2023-01-19T04:48:12.041Z,16.90
2023-01-19T04:50:39.002Z,14.23
2023-01-19T04:53:05.740Z,15.50
2023-01-19T04:55:32.289Z,12.77
2023-01-19T04:57:59.900Z,15.60
2023-01-19T05:00:27.027Z,13.67
2023-01-19T05:02:53.693Z,14.63
2023-01-19T05:05:20.305Z,17.53
2023-01-19T05:07:47.150Z,10.97
2023-01-19T05:10:13.834Z,14.73
2023-01-19T05:12:40.546Z,14.73
2023-01-19T05:15:07.954Z,14.70
2023-01-19T05:17:35.077Z,14.10
2023-01-19T05:20:02.069Z,13.70
2023-01-19T05:22:28.708Z,12.47
2023-01-19T05:24:55.395Z,13.40
2023-01-19T05:27:22.075Z,14.13
2023-01-19T05:29:48.727Z,15.70
2023-01-19T05:32:15.372Z,15.53
2023-01-19T05:34:41.957Z,19.47
2023-01-19T05:37:08.713Z,15.97
2023-01-19T05:39:36.140Z,17.70
2023-01-19T05:42:02.804Z,15.07
2023-01-19T05:44:29.931Z,15.57
2023-01-19T05:46:56.643Z,16.37
2023-01-19T05:49:23.346Z,18.43
2023-01-19T05:51:50.456Z,18.40
2023-01-19T05:54:17.352Z,15.73
2023-01-19T05:56:44.072Z,17.37
2023-01-19T05:59:11.077Z,16.73
2023-01-19T06:01:39.918Z,17.77
2023-01-19T06:04:06.863Z,17.60
2023-01-19T06:06:33.630Z,22.40
2023-01-19T06:09:00.424Z,20.47
2023-01-19T06:11:27.052Z,21.40
2023-01-19T06:13:53.698Z,20.17
2023-01-19T06:16:20.356Z,20.87
2023-01-19T06:18:47.331Z,16.57
2023-01-19T06:21:14.467Z,20.33
2023-01-19T06:23:41.205Z,20.03
2023-01-19T06:26:08.486Z,20.30
2023-01-19T06:28:35.340Z,22.30
2023-01-19T06:31:02.152Z,19.50
2023-01-19T06:33:29.171Z,25.23
2023-01-19T06:35:56.016Z,19.23
2023-01-19T06:38:22.756Z,19.97
2023-01-19T06:40:54.544Z,25.77
2023-01-19T06:43:21.290Z,24.77
2023-01-19T06:45:48.237Z,23.20
2023-01-19T06:48:14.936Z,19.43
2023-01-19T06:50:41.893Z,30.97
2023-01-19T06:53:08.660Z,25.00
2023-01-19T06:55:36.880Z,25.73
2023-01-19T06:58:06.658Z,27.20
2023-01-19T07:00:33.270Z,31.83
2023-01-19T07:03:01.030Z,29.07
2023-01-19T07:05:27.838Z,34.30
2023-01-19T07:07:55.532Z,27.67
2023-01-19T07:10:22.291Z,29.10
2023-01-19T07:12:48.942Z,24.23
2023-01-19T07:15:19.937Z,25.87
2023-01-19T07:17:47.128Z,21.60
2023-01-19T07:20:14.556Z,23.57
2023-01-19T07:22:42.167Z,23.50
2023-01-19T07:25:09.207Z,23.23
2023-01-19T07:27:35.843Z,26.00
2023-01-19T07:30:02.734Z,26.53
2023-01-19T07:32:29.475Z,29.10
2023-01-19T07:34:56.178Z,33.07
2023-01-19T07:37:22.875Z,27.97
2023-01-19T07:39:49.564Z,26.80
2023-01-19T07:42:16.309Z,24.20
2023-01-19T07:44:42.948Z,23.67
2023-01-19T07:47:12.732Z,29.30
2023-01-19T07:49:39.900Z,25.13
2023-01-19T07:52:06.519Z,29.83
2023-01-19T07:54:33.642Z,27.03
2023-01-19T07:57:03.008Z,27.87
2023-01-19T07:59:31.155Z,28.13
2023-01-19T08:01:59.635Z,30.53
2023-01-19T08:04:27.109Z,32.73
2023-01-19T08:06:54.046Z,28.50
2023-01-19T08:09:20.694Z,26.07
2023-01-19T08:11:47.645Z,27.57
2023-01-19T08:14:14.346Z,26.63
2023-01-19T08:16:41.039Z,0.30
2023-01-19T08:19:07.844Z,0.30
2023-01-19T08:21:35.983Z,0.20
2023-01-19T08:24:03.130Z,0.10
2023-01-19T08:26:30.738Z,0.20
2023-01-19T08:28:58.642Z,0.20
2023-01-19T08:31:25.705Z,0.20
2023-01-19T08:33:52.600Z,0.13
2023-01-19T08:36:20.213Z,0.20
2023-01-19T08:38:46.978Z,0.17
2023-01-19T08:41:13.647Z,0.20
2023-01-19T08:43:40.567Z,0.13
2023-01-19T08:46:07.240Z,0.20
2023-01-19T08:48:33.876Z,0.10
2023-01-19T08:51:00.640Z,0.20
2023-01-19T08:53:27.362Z,0.20
2023-01-19T08:55:55.435Z,0.10
2023-01-19T08:58:22.173Z,0.30
2023-01-19T09:00:49.261Z,0.20
2023-01-19T09:03:15.941Z,0.20
2023-01-19T09:05:42.747Z,0.20
2023-01-19T09:08:10.745Z,0.20
2023-01-19T09:10:38.344Z,0.20
2023-01-19T09:13:05.806Z,0.20
2023-01-19T09:15:35.792Z,0.10
2023-01-19T09:18:02.934Z,0.20
2023-01-19T09:20:31.240Z,0.20
2023-01-19T09:22:58.467Z,0.87
2023-01-19T09:25:25.589Z,0.10
2023-01-19T09:27:53.053Z,0.13
2023-01-19T09:30:20.254Z,0.20
2023-01-19T09:32:46.972Z,0.20
2023-01-19T09:35:13.998Z,0.17
2023-01-19T09:37:40.658Z,0.30
2023-01-19T09:40:10.511Z,0.20
2023-01-19T09:42:44.647Z,0.10
2023-01-19T09:45:18.864Z,1.23
2023-01-19T09:47:47.044Z,0.20
2023-01-19T09:50:20.875Z,0.20
2023-01-19T09:52:52.977Z,0.10
2023-01-19T09:55:21.078Z,0.20
2023-01-19T09:57:47.743Z,0.20
2023-01-19T10:00:17.621Z,0.20
2023-01-19T10:02:46.887Z,0.20
2023-01-19T10:05:33.030Z,0.20
2023-01-19T10:08:08.763Z,0.10
2023-01-19T10:10:37.169Z,0.20
2023-01-19T10:13:17.795Z,0.10
2023-01-19T10:15:50.326Z,0.20
2023-01-19T10:18:16.891Z,0.20
2023-01-19T10:20:46.527Z,1.70
2023-01-19T10:23:20.348Z,0.40
2023-01-19T10:25:47.159Z,0.20
2023-01-19T10:28:14.414Z,0.20
2023-01-19T10:30:42.898Z,1.50
2023-01-19T10:33:11.777Z,0.20
2023-01-19T10:35:38.844Z,0.17
2023-01-19T10:38:05.525Z,0.20
2023-01-19T10:40:35.714Z,0.20
2023-01-19T10:43:22.347Z,0.20
2023-01-19T10:45:50.392Z,2.37
2023-01-19T10:48:17.122Z,0.20
2023-01-19T10:50:43.914Z,0.20
2023-01-19T10:53:20.548Z,0.10
2023-01-19T10:55:47.355Z,0.33
2023-01-19T10:58:27.893Z,0.40
2023-01-19T11:00:54.773Z,0.20
2023-01-19T11:03:25.382Z,3.90
2023-01-19T11:05:52.156Z,0.20
2023-01-19T11:08:29.599Z,0.20
2023-01-19T11:11:02.503Z,0.10
2023-01-19T11:13:29.332Z,0.20
2023-01-19T11:16:00.494Z,0.67
2023-01-19T11:18:37.192Z,0.20
2023-01-19T11:21:06.865Z,0.20
2023-01-19T11:23:46.425Z,0.10
2023-01-19T11:26:16.422Z,0.20
2023-01-19T11:28:46.304Z,0.60
2023-01-19T11:31:15.886Z,0.30
2023-01-19T11:33:49.748Z,0.20
2023-01-19T11:36:37.875Z,0.20
2023-01-19T11:39:28.046Z,0.20
2023-01-19T11:41:57.385Z,0.20
2023-01-19T11:44:32.679Z,0.20
2023-01-19T11:47:00.929Z,0.20
2023-01-19T11:49:56.736Z,0.20
2023-01-19T11:52:28.400Z,34.07
2023-01-19T11:54:58.074Z,35.40
2023-01-19T11:57:24.807Z,29.80
2023-01-19T11:59:51.505Z,31.70
2023-01-19T12:02:27.071Z,35.63
2023-01-19T12:04:56.636Z,33.87
2023-01-19T12:07:27.735Z,35.57
2023-01-19T12:09:56.694Z,34.03
2023-01-19T12:12:26.207Z,32.03
2023-01-19T12:14:55.667Z,29.07
2023-01-19T12:17:32.003Z,27.77
2023-01-19T12:20:08.016Z,27.93
2023-01-19T12:22:37.447Z,29.03
2023-01-19T12:25:13.019Z,27.07
2023-01-19T12:27:43.631Z,29.03
2023-01-19T12:30:16.234Z,27.70
2023-01-19T12:32:43.462Z,33.37
2023-01-19T12:35:29.132Z,27.47
2023-01-19T12:37:55.803Z,25.17
2023-01-19T12:40:29.237Z,25.20
2023-01-19T12:42:58.220Z,27.37
2023-01-19T12:45:28.671Z,26.70
2023-01-19T12:47:56.310Z,23.20
2023-01-19T12:50:25.794Z,23.53
2023-01-19T12:52:58.581Z,27.27
2023-01-19T12:55:25.708Z,25.73
2023-01-19T12:58:01.533Z,27.47
2023-01-19T13:00:33.032Z,25.73
2023-01-19T13:03:19.994Z,25.13
2023-01-19T13:05:56.495Z,21.00
2023-01-19T13:08:24.198Z,27.50
2023-01-19T13:10:53.885Z,23.80
2023-01-19T13:13:21.095Z,22.37
2023-01-19T13:15:47.934Z,23.00
2023-01-19T13:18:25.595Z,20.77
2023-01-19T13:21:00.233Z,23.93
2023-01-19T13:23:50.086Z,20.77
2023-01-19T13:26:22.262Z,21.10
2023-01-19T13:28:56.214Z,21.73
2023-01-19T13:31:24.125Z,20.63
2023-01-19T13:33:54.753Z,20.93
2023-01-19T13:36:23.743Z,20.97
2023-01-19T13:38:51.033Z,16.87
2023-01-19T13:41:19.247Z,16.00
2023-01-19T13:43:46.437Z,18.37
2023-01-19T13:46:14.363Z,15.67
2023-01-19T13:48:51.565Z,15.80
2023-01-19T13:51:18.810Z,16.43
2023-01-19T13:53:58.545Z,14.97
2023-01-19T13:56:28.497Z,17.47
2023-01-19T13:59:10.030Z,16.30
2023-01-19T14:01:37.726Z,16.07
2023-01-19T14:04:04.795Z,19.47
2023-01-19T14:06:33.658Z,15.23
2023-01-19T14:09:16.692Z,16.07
2023-01-19T14:11:47.777Z,13.43
2023-01-19T14:14:27.356Z,17.23
2023-01-19T14:16:54.253Z,18.27
2023-01-19T14:19:21.727Z,20.33
2023-01-19T14:21:58.079Z,16.63
2023-01-19T14:24:24.710Z,14.93
2023-01-19T14:26:53.952Z,18.57
2023-01-19T14:29:26.484Z,14.60
2023-01-19T14:31:53.443Z,16.80
2023-01-19T14:34:35.848Z,17.43
2023-01-19T14:37:03.982Z,19.00
2023-01-19T14:39:32.682Z,15.40
2023-01-19T14:42:04.881Z,20.13
2023-01-19T14:44:33.781Z,15.80
2023-01-19T14:47:01.321Z,17.60
2023-01-19T14:49:39.673Z,17.00
2023-01-19T14:52:26.595Z,18.07
2023-01-19T14:54:54.421Z,18.80
2023-01-19T14:57:21.323Z,18.93
2023-01-19T14:59:49.792Z,17.37
2023-01-19T15:02:19.199Z,17.83
2023-01-19T15:04:48.074Z,17.00
2023-01-19T15:07:19.247Z,17.23
2023-01-19T15:09:47.113Z,14.10
2023-01-19T15:12:17.246Z,18.10
2023-01-19T15:14:45.096Z,16.87
2023-01-19T15:17:16.996Z,26.13
2023-01-19T15:19:43.702Z,25.47
2023-01-19T15:22:11.733Z,25.90
2023-01-19T15:24:39.794Z,24.30
2023-01-19T15:27:09.059Z,24.20
2023-01-19T15:29:35.798Z,19.67
2023-01-19T15:32:03.924Z,30.97
2023-01-19T15:34:30.702Z,17.00
2023-01-19T15:36:58.155Z,15.37
2023-01-19T15:39:26.180Z,14.63
2023-01-19T15:41:52.951Z,16.30
2023-01-19T15:44:19.547Z,15.60
2023-01-19T15:46:46.169Z,13.67
2023-01-19T15:49:12.817Z,12.13
2023-01-19T15:51:39.497Z,12.23
2023-01-19T15:54:10.324Z,12.20
2023-01-19T15:56:36.936Z,12.00
2023-01-19T15:59:03.649Z,11.37
2023-01-19T16:01:34.807Z,13.23
2023-01-19T16:04:02.781Z,15.43
2023-01-19T16:06:30.137Z,18.50
2023-01-19T16:09:01.137Z,16.33
2023-01-19T16:11:29.263Z,19.77
2023-01-19T16:13:56.074Z,14.93
2023-01-19T16:16:23.771Z,14.57
2023-01-19T16:18:51.213Z,15.27
2023-01-19T16:21:18.150Z,12.73
2023-01-19T16:23:44.837Z,13.67
2023-01-19T16:26:26.021Z,9.87
2023-01-19T16:28:53.100Z,10.53
2023-01-19T16:31:19.776Z,13.53
2023-01-19T16:33:46.967Z,12.80
2023-01-19T16:36:24.270Z,10.03
2023-01-19T16:38:51.794Z,10.47
2023-01-19T16:41:18.526Z,10.93
2023-01-19T16:43:49.812Z,13.67
2023-01-19T16:46:18.618Z,12.90
2023-01-19T16:48:45.284Z,12.83
2023-01-19T16:51:11.978Z,14.13
2023-01-19T16:53:38.757Z,13.67
2023-01-19T16:56:09.619Z,14.17
2023-01-19T16:58:38.907Z,11.50
2023-01-19T17:01:13.571Z,10.33
2023-01-19T17:03:41.135Z,13.90
2023-01-19T17:06:08.535Z,15.17
2023-01-19T17:08:35.864Z,12.27
2023-01-19T17:11:07.980Z,10.33
2023-01-19T17:13:34.800Z,8.13
2023-01-19T17:16:02.104Z,11.30
2023-01-19T17:18:31.120Z,10.20
2023-01-19T17:21:02.359Z,9.97
2023-01-19T17:23:29.816Z,10.37
2023-01-19T17:25:56.912Z,9.73
2023-01-19T17:28:23.787Z,12.90
2023-01-19T17:30:52.230Z,11.87
2023-01-19T17:33:19.426Z,12.37
2023-01-19T17:35:47.011Z,10.27
2023-01-19T17:38:13.702Z,13.53
2023-01-19T17:40:40.336Z,11.60
2023-01-19T17:43:07.155Z,13.20
2023-01-19T17:45:36.942Z,14.90
2023-01-19T17:48:04.417Z,13.73
2023-01-19T17:50:32.127Z,10.67
2023-01-19T17:52:58.772Z,12.93
2023-01-19T17:55:25.368Z,8.83
2023-01-19T17:57:52.353Z,10.67
2023-01-19T18:00:19.323Z,14.43
2023-01-19T18:02:48.571Z,26.17
2023-01-19T18:05:15.282Z,15.23
2023-01-19T18:07:41.961Z,23.13
2023-01-19T18:10:09.251Z,25.90
2023-01-19T18:12:36.543Z,25.70
2023-01-19T18:15:04.358Z,38.60
2023-01-19T18:17:31.588Z,29.53
2023-01-19T18:19:58.669Z,21.40
2023-01-19T18:22:25.299Z,13.17
2023-01-19T18:24:51.948Z,12.23
2023-01-19T18:27:18.675Z,15.27
2023-01-19T18:29:45.267Z,15.43
2023-01-19T18:32:11.857Z,14.17
2023-01-19T18:34:38.602Z,27.50
2023-01-19T18:37:05.250Z,26.60
2023-01-19T18:39:31.908Z,10.50
2023-01-19T18:42:00.267Z,11.70
2023-01-19T18:44:26.967Z,12.00
2023-01-19T18:46:54.796Z,27.10
2023-01-19T18:49:21.902Z,18.90
2023-01-19T18:51:48.483Z,16.67
2023-01-19T18:54:15.149Z,18.73
2023-01-19T18:56:41.799Z,17.47
2023-01-19T18:59:09.963Z,13.57
2023-01-19T19:01:38.845Z,13.77
2023-01-19T19:04:05.836Z,21.63
2023-01-19T19:06:32.585Z,13.27
2023-01-19T19:09:03.339Z,13.17
2023-01-19T19:11:30.125Z,15.57
2023-01-19T19:14:00.855Z,15.17
2023-01-19T19:16:29.247Z,10.70
2023-01-19T19:18:56.524Z,16.80
2023-01-19T19:21:27.596Z,14.60
2023-01-19T19:23:55.210Z,17.53
2023-01-19T19:26:22.733Z,11.87
2023-01-19T19:28:49.361Z,15.20
2023-01-19T19:31:18.219Z,12.50
2023-01-19T19:33:44.957Z,16.50
2023-01-19T19:36:15.798Z,15.20
2023-01-19T19:38:44.454Z,12.20
2023-01-19T19:41:16.580Z,20.20
2023-01-19T19:43:43.660Z,14.13
2023-01-19T19:46:12.074Z,14.47
2023-01-19T19:48:39.545Z,16.03
2023-01-19T19:51:18.081Z,14.53
2023-01-19T19:53:51.515Z,15.10
2023-01-19T19:56:21.456Z,15.47
2023-01-19T19:58:48.796Z,17.50
2023-01-19T20:01:16.835Z,19.27
2023-01-19T20:03:44.662Z,15.33
2023-01-19T20:06:14.725Z,15.73
2023-01-19T20:08:41.825Z,13.77
2023-01-19T20:11:11.357Z,15.53
2023-01-19T20:13:38.799Z,19.33
2023-01-19T20:16:06.900Z,17.47
2023-01-19T20:18:34.051Z,15.27
2023-01-19T20:21:00.685Z,16.10
2023-01-19T20:23:27.278Z,19.10
2023-01-19T20:25:54.151Z,17.23
2023-01-19T20:28:20.709Z,16.10
2023-01-19T20:30:47.558Z,16.47
2023-01-19T20:33:14.859Z,14.53
2023-01-19T20:35:41.445Z,18.83
2023-01-19T20:38:08.700Z,18.70
2023-01-19T20:40:35.510Z,17.93
2023-01-19T20:43:02.131Z,17.07
2023-01-19T20:45:28.834Z,15.47
2023-01-19T20:47:55.530Z,19.67
2023-01-19T20:50:22.302Z,20.23
2023-01-19T20:52:50.123Z,18.20
2023-01-19T20:55:16.892Z,20.87
2023-01-19T20:57:43.879Z,16.83
2023-01-19T21:00:11.846Z,17.90
2023-01-19T21:02:39.149Z,19.47
2023-01-19T21:05:07.086Z,20.60
2023-01-19T21:07:34.987Z,20.10
2023-01-19T21:10:02.107Z,18.77
2023-01-19T21:12:28.930Z,18.70
2023-01-19T21:14:55.828Z,21.00
2023-01-19T21:17:22.729Z,21.97
2023-01-19T21:19:49.561Z,18.13
2023-01-19T21:22:16.313Z,20.40
2023-01-19T21:24:44.508Z,19.63
2023-01-19T21:27:11.344Z,17.83
2023-01-19T21:29:37.973Z,21.67
2023-01-19T21:32:04.675Z,16.80
2023-01-19T21:34:31.223Z,19.47
2023-01-19T21:36:57.841Z,20.13
2023-01-19T21:39:24.496Z,22.13
2023-01-19T21:41:51.592Z,21.27
2023-01-19T21:44:18.493Z,19.17
2023-01-19T21:46:45.275Z,19.93
2023-01-19T21:49:16.059Z,22.27
2023-01-19T21:51:42.843Z,20.83
2023-01-19T21:54:09.485Z,21.87
2023-01-19T21:56:38.058Z,19.73
2023-01-19T21:59:05.280Z,20.40
2023-01-19T22:01:32.748Z,19.13
2023-01-19T22:03:59.874Z,20.07
2023-01-19T22:06:26.969Z,20.07
2023-01-19T22:08:54.341Z,20.67
2023-01-19T22:11:21.370Z,19.53
2023-01-19T22:13:48.436Z,17.13
2023-01-19T22:16:16.534Z,17.13
2023-01-19T22:18:44.940Z,19.00
2023-01-19T22:21:13.119Z,21.00
2023-01-19T22:23:40.312Z,18.80
2023-01-19T22:26:07.595Z,20.97
2023-01-19T22:28:34.204Z,22.70
2023-01-19T22:31:27.160Z,21.73
2023-01-19T22:33:54.672Z,20.10
2023-01-19T22:36:26.511Z,20.53
2023-01-19T22:38:57.209Z,26.53
2023-01-19T22:41:25.349Z,25.30
2023-01-19T22:43:56.211Z,24.57
2023-01-19T22:46:24.352Z,22.37
2023-01-19T22:48:51.575Z,28.67
2023-01-19T22:51:19.183Z,20.67
2023-01-19T22:53:46.059Z,21.37
2023-01-19T22:56:17.527Z,28.80
2023-01-19T22:58:44.877Z,24.33
2023-01-19T23:01:16.130Z,23.73
2023-01-19T23:03:42.891Z,23.37
2023-01-19T23:06:14.405Z,25.90
2023-01-19T23:08:41.574Z,25.23
2023-01-19T23:11:09.558Z,24.73
2023-01-19T23:13:36.308Z,23.27
2023-01-19T23:16:03.355Z,27.57
2023-01-19T23:18:30.308Z,25.23
2023-01-19T23:21:01.699Z,23.50
2023-01-19T23:23:28.445Z,27.17
2023-01-19T23:25:58.892Z,25.77
2023-01-19T23:28:25.461Z,27.23
2023-01-19T23:30:52.151Z,25.30
2023-01-19T23:33:18.786Z,28.10
2023-01-19T23:35:45.351Z,26.60
2023-01-19T23:38:12.528Z,31.33
2023-01-19T23:40:39.084Z,27.83
2023-01-19T23:43:05.775Z,25.83
2023-01-19T23:45:34.279Z,26.97
2023-01-19T23:48:00.875Z,28.90
2023-01-19T23:50:27.430Z,26.77
2023-01-19T23:52:54.224Z,24.50
2023-01-19T23:55:20.823Z,24.03
2023-01-19T23:57:48.020Z,29.47
